Terminal Aerodrome Forecast
Issued by NWS Blacksburg, VA

Current Version | Previous Version | Graphics & Text | Print | Product List | Glossary On
Versions: 1 2 3 4 5 6 7 8 9 10 11 12 13 14 15 16 17 18 19 20 21
000
FTUS41 KRNK 230520
TAFBLF
TAF
KBLF 230520Z 2306/2406 11012G23KT 6SM -SHRA OVC005
     FM230700 09009KT 4SM -RA BR OVC004
      TEMPO 2308/2312 1SM RA BR OVC003
     FM231700 VRB06KT 5SM -SHRA BR OVC005
     FM240000 32006KT 5SM -SHRA BR OVC007=

USA.gov is the U.S. government's official web portal to all federal, state and local government web resources and services.